createdAt,value
2018-02-01T00:00:41.200Z,82.62
2018-02-01T00:01:47.094Z,82.29
2018-02-01T00:02:53.235Z,81.70
2018-02-01T00:03:59.434Z,81.95
2018-02-01T00:05:08.736Z,81.53
2018-02-01T00:06:15.376Z,81.61
2018-02-01T00:07:21.268Z,81.46
2018-02-01T00:08:27.507Z,81.36
2018-02-01T00:09:33.673Z,80.62
2018-02-01T00:10:39.837Z,80.26
2018-02-01T00:11:45.998Z,79.97
2018-02-01T00:12:52.168Z,79.74
2018-02-01T00:13:58.328Z,79.91
2018-02-01T00:15:04.174Z,79.66
2018-02-01T00:16:10.317Z,79.65
2018-02-01T00:17:16.502Z,80.09
2018-02-01T00:18:22.661Z,79.93
2018-02-01T00:19:28.828Z,79.69
2018-02-01T00:20:35.003Z,79.92
2018-02-01T00:21:41.911Z,79.87
2018-02-01T00:22:48.089Z,80.00
2018-02-01T00:23:54.256Z,80.12
2018-02-01T00:25:00.420Z,80.01
2018-02-01T00:26:06.534Z,79.93
2018-02-01T00:27:12.703Z,79.40
2018-02-01T00:28:18.843Z,79.36
2018-02-01T00:29:24.962Z,79.51
2018-02-01T00:30:31.088Z,79.34
2018-02-01T00:31:37.298Z,79.34
2018-02-01T00:32:43.458Z,79.34
2018-02-01T00:33:49.609Z,79.21
2018-02-01T00:34:55.801Z,79.30
2018-02-01T00:36:05.821Z,79.44
2018-02-01T00:37:11.786Z,79.82
2018-02-01T00:38:17.869Z,79.55
2018-02-01T00:39:23.836Z,79.19
2018-02-01T00:40:30.003Z,79.29
2018-02-01T00:41:36.164Z,79.83
2018-02-01T00:42:43.675Z,79.59
2018-02-01T00:43:49.457Z,79.34
2018-02-01T00:44:55.960Z,78.91
2018-02-01T00:46:02.055Z,79.19
2018-02-01T00:47:08.197Z,79.26
2018-02-01T00:48:14.312Z,79.60
2018-02-01T00:49:20.492Z,79.85
2018-02-01T00:50:26.664Z,79.81
2018-02-01T00:51:32.855Z,80.00
2018-02-01T00:52:38.992Z,80.31
2018-02-01T00:53:51.035Z,80.31
2018-02-01T00:54:57.229Z,80.61
2018-02-01T00:56:03.359Z,80.86
2018-02-01T00:57:09.483Z,81.11
2018-02-01T00:58:15.602Z,81.16
2018-02-01T00:59:21.749Z,81.17
2018-02-01T01:00:27.954Z,81.29
2018-02-01T01:01:34.072Z,81.53
2018-02-01T01:02:40.189Z,81.49
2018-02-01T01:03:46.351Z,81.71
2018-02-01T01:04:58.235Z,82.06
2018-02-01T01:06:04.406Z,82.07
2018-02-01T01:07:10.533Z,82.80
2018-02-01T01:08:15.984Z,82.87
2018-02-01T01:09:22.171Z,82.26
2018-02-01T01:10:28.325Z,82.36
2018-02-01T01:11:34.436Z,82.29
2018-02-01T01:12:40.527Z,82.28
2018-02-01T01:13:46.606Z,81.65
2018-02-01T01:14:52.722Z,81.56
2018-02-01T01:15:58.906Z,81.53
2018-02-01T01:17:05.090Z,81.55
2018-02-01T01:18:13.350Z,81.56
2018-02-01T01:19:19.767Z,81.82
2018-02-01T01:20:26.045Z,82.17
2018-02-01T01:21:32.749Z,81.78
2018-02-01T01:22:40.653Z,81.66
2018-02-01T01:23:47.437Z,81.76
2018-02-01T01:24:53.620Z,81.32
2018-02-01T01:25:59.893Z,81.42
2018-02-01T01:27:06.057Z,81.34
2018-02-01T01:28:12.204Z,81.11
2018-02-01T01:29:18.088Z,81.08
2018-02-01T01:30:24.237Z,80.76
2018-02-01T01:31:30.418Z,80.83
2018-02-01T01:32:36.539Z,80.70
2018-02-01T01:33:42.664Z,80.04
2018-02-01T01:34:48.761Z,79.91
2018-02-01T01:35:54.874Z,79.92
2018-02-01T01:37:00.978Z,79.84
2018-02-01T01:38:12.729Z,80.08
2018-02-01T01:39:18.554Z,80.21
2018-02-01T01:40:24.694Z,80.65
2018-02-01T01:41:30.804Z,81.19
2018-02-01T01:42:36.904Z,81.20
2018-02-01T01:43:43.069Z,80.79
2018-02-01T01:44:49.424Z,81.07
2018-02-01T01:46:06.651Z,81.15
2018-02-01T01:47:13.745Z,81.33
2018-02-01T01:48:20.883Z,81.11
2018-02-01T01:49:27.069Z,81.09
2018-02-01T01:50:36.251Z,81.34
2018-02-01T01:51:42.454Z,81.64
2018-02-01T01:52:53.000Z,81.74
2018-02-01T01:53:59.287Z,81.50
2018-02-01T01:55:06.449Z,81.35
2018-02-01T01:56:12.594Z,81.72
2018-02-01T01:57:20.716Z,81.53
2018-02-01T01:58:26.865Z,81.52
2018-02-01T01:59:33.048Z,81.73
2018-02-01T02:00:39.828Z,81.74
2018-02-01T02:01:45.004Z,81.89
2018-02-01T02:02:51.172Z,82.19
2018-02-01T02:03:57.281Z,81.98
2018-02-01T02:05:03.396Z,82.29
2018-02-01T02:06:09.579Z,82.16
2018-02-01T02:07:16.616Z,82.18
2018-02-01T02:08:22.380Z,82.28
2018-02-01T02:09:27.841Z,82.08
2018-02-01T02:10:33.991Z,82.33
2018-02-01T02:11:40.166Z,82.19
2018-02-01T02:12:46.343Z,82.20
2018-02-01T02:13:53.866Z,82.16
2018-02-01T02:15:00.041Z,81.93
2018-02-01T02:16:05.915Z,81.36
2018-02-01T02:17:12.764Z,81.50
2018-02-01T02:18:18.938Z,81.89
2018-02-01T02:19:24.868Z,82.21
2018-02-01T02:20:31.754Z,82.90
2018-02-01T02:21:37.550Z,83.37
2018-02-01T02:22:49.226Z,84.06
2018-02-01T02:23:56.221Z,84.80
2018-02-01T02:25:02.444Z,85.55
2018-02-01T02:26:08.615Z,85.26
2018-02-01T02:27:14.688Z,84.91
2018-02-01T02:28:20.836Z,84.73
2018-02-01T02:29:26.673Z,84.00
2018-02-01T02:30:32.834Z,83.31
2018-02-01T02:31:38.989Z,83.35
2018-02-01T02:32:45.693Z,82.46
2018-02-01T02:33:51.886Z,81.74
2018-02-01T02:34:57.083Z,81.30
2018-02-01T02:36:03.201Z,80.93
2018-02-01T02:37:09.001Z,81.33
2018-02-01T02:38:15.114Z,81.24
2018-02-01T02:39:21.249Z,80.79
2018-02-01T02:40:27.412Z,81.03
2018-02-01T02:41:32.849Z,81.50
2018-02-01T02:42:38.289Z,81.58
2018-02-01T02:43:45.249Z,81.91
2018-02-01T02:44:51.402Z,82.39
2018-02-01T02:45:57.540Z,81.97
2018-02-01T02:47:03.461Z,81.44
2018-02-01T02:48:11.161Z,81.40
2018-02-01T02:49:17.267Z,81.27
2018-02-01T02:50:23.421Z,81.35
2018-02-01T02:51:29.634Z,81.46
2018-02-01T02:52:35.787Z,81.77
2018-02-01T02:53:41.993Z,82.36
2018-02-01T02:54:48.132Z,82.49
2018-02-01T02:55:54.268Z,82.59
2018-02-01T02:57:00.413Z,82.99
2018-02-01T02:58:06.528Z,82.68
2018-02-01T02:59:12.690Z,83.97
2018-02-01T03:00:18.789Z,84.24
2018-02-01T03:01:25.924Z,83.94
2018-02-01T03:02:32.045Z,84.63
2018-02-01T03:03:38.011Z,85.41
2018-02-01T03:04:44.125Z,85.32
2018-02-01T03:05:50.231Z,85.09
2018-02-01T03:06:56.353Z,85.28
2018-02-01T03:08:02.535Z,86.10
2018-02-01T03:09:08.459Z,86.00
2018-02-01T03:10:14.603Z,86.68
2018-02-01T03:11:20.812Z,86.21
2018-02-01T03:12:26.901Z,86.09
2018-02-01T03:13:33.049Z,86.94
2018-02-01T03:14:40.059Z,86.33
2018-02-01T03:15:46.191Z,85.51
2018-02-01T03:16:52.296Z,85.31
2018-02-01T03:17:58.402Z,85.66
2018-02-01T03:19:04.535Z,85.94
2018-02-01T03:20:10.689Z,85.93
2018-02-01T03:21:16.786Z,85.95
2018-02-01T03:22:22.933Z,85.58
2018-02-01T03:23:29.173Z,85.45
2018-02-01T03:24:35.303Z,85.38
2018-02-01T03:25:41.473Z,85.63
2018-02-01T03:26:47.603Z,85.81
2018-02-01T03:27:58.833Z,85.75
2018-02-01T03:29:04.996Z,85.66
2018-02-01T03:30:11.097Z,85.26
2018-02-01T03:31:17.274Z,85.67
2018-02-01T03:32:26.413Z,86.06
2018-02-01T03:33:32.515Z,85.34
2018-02-01T03:34:39.413Z,85.29
2018-02-01T03:35:45.607Z,85.38
2018-02-01T03:36:51.711Z,85.38
2018-02-01T03:37:57.825Z,86.01
2018-02-01T03:39:04.488Z,86.06
2018-02-01T03:40:10.650Z,85.70
2018-02-01T03:41:16.530Z,86.09
2018-02-01T03:42:22.657Z,85.60
2018-02-01T03:43:28.749Z,85.13
2018-02-01T03:44:35.130Z,85.14
2018-02-01T03:45:41.282Z,85.07
2018-02-01T03:46:48.651Z,84.54
2018-02-01T03:47:54.752Z,84.39
2018-02-01T03:49:00.884Z,84.78
2018-02-01T03:50:07.020Z,84.58
2018-02-01T03:51:15.225Z,85.13
2018-02-01T03:52:21.340Z,85.09
2018-02-01T03:53:27.515Z,85.02
2018-02-01T03:54:33.684Z,85.33
2018-02-01T03:55:39.813Z,85.05
2018-02-01T03:56:45.934Z,85.02
2018-02-01T03:57:52.161Z,85.07
2018-02-01T03:58:57.540Z,85.38
2018-02-01T04:00:03.987Z,85.09
2018-02-01T04:01:09.832Z,84.88
2018-02-01T04:02:15.929Z,84.64
2018-02-01T04:03:21.409Z,84.39
2018-02-01T04:04:27.560Z,83.95
2018-02-01T04:05:33.060Z,83.90
2018-02-01T04:06:39.211Z,83.84
2018-02-01T04:07:45.110Z,84.64
2018-02-01T04:08:51.309Z,84.90
2018-02-01T04:09:57.075Z,84.71
2018-02-01T04:11:03.179Z,85.15
2018-02-01T04:12:09.309Z,85.56
2018-02-01T04:13:20.472Z,84.89
2018-02-01T04:14:26.655Z,84.59
2018-02-01T04:15:32.790Z,84.03
2018-02-01T04:16:38.258Z,84.17
2018-02-01T04:17:44.412Z,84.44
2018-02-01T04:18:50.502Z,84.87
2018-02-01T04:19:56.616Z,84.58
2018-02-01T04:21:02.754Z,83.99
2018-02-01T04:22:08.864Z,83.55
2018-02-01T04:23:15.005Z,83.60
2018-02-01T04:24:21.118Z,83.44
2018-02-01T04:25:28.276Z,83.78
2018-02-01T04:26:34.389Z,84.36
2018-02-01T04:27:40.464Z,85.09
2018-02-01T04:28:47.205Z,84.98
2018-02-01T04:29:53.990Z,84.78
2018-02-01T04:31:00.117Z,85.35
2018-02-01T04:32:06.239Z,84.94
2018-02-01T04:33:12.350Z,84.26
2018-02-01T04:34:20.458Z,83.88
2018-02-01T04:35:27.668Z,83.65
2018-02-01T04:36:33.071Z,83.82
2018-02-01T04:37:39.213Z,83.89
2018-02-01T04:38:45.436Z,83.91
2018-02-01T04:39:51.542Z,83.90
2018-02-01T04:40:57.684Z,84.14
2018-02-01T04:42:05.622Z,84.31
2018-02-01T04:43:11.420Z,84.35
2018-02-01T04:44:17.198Z,84.55
2018-02-01T04:45:23.325Z,84.92
2018-02-01T04:46:30.022Z,84.47
2018-02-01T04:47:37.746Z,84.69
2018-02-01T04:48:44.310Z,84.98
2018-02-01T04:49:50.527Z,85.15
2018-02-01T04:50:56.771Z,85.04
2018-02-01T04:52:04.851Z,84.70
2018-02-01T04:53:11.031Z,85.03
2018-02-01T04:54:16.561Z,85.19
2018-02-01T04:55:26.074Z,85.47
2018-02-01T04:56:34.742Z,85.01
2018-02-01T04:57:42.959Z,85.34
2018-02-01T04:58:49.110Z,85.59
2018-02-01T04:59:55.636Z,85.78
2018-02-01T05:01:02.157Z,85.51
2018-02-01T05:02:08.654Z,85.17
2018-02-01T05:03:15.006Z,85.07
2018-02-01T05:04:20.903Z,85.33
2018-02-01T05:05:26.499Z,84.94
2018-02-01T05:06:32.853Z,84.55
2018-02-01T05:07:39.201Z,84.81
2018-02-01T05:08:45.431Z,85.38
2018-02-01T05:09:51.263Z,85.69
2018-02-01T05:10:57.392Z,85.65
2018-02-01T05:12:03.366Z,85.49
2018-02-01T05:13:09.588Z,85.65
2018-02-01T05:14:15.709Z,85.67
2018-02-01T05:15:21.839Z,85.46
2018-02-01T05:16:28.363Z,85.30
2018-02-01T05:17:34.316Z,85.34
2018-02-01T05:18:40.960Z,84.82
2018-02-01T05:19:47.084Z,85.39
2018-02-01T05:20:53.315Z,84.75
2018-02-01T05:21:59.914Z,84.68
2018-02-01T05:23:06.280Z,84.30
2018-02-01T05:24:12.444Z,84.21
2018-02-01T05:25:18.557Z,84.37
2018-02-01T05:26:24.692Z,84.36
2018-02-01T05:27:30.816Z,84.07
2018-02-01T05:28:36.934Z,83.90
2018-02-01T05:29:43.093Z,83.80
2018-02-01T05:30:49.240Z,83.87
2018-02-01T05:31:55.376Z,83.93
2018-02-01T05:33:01.612Z,84.07
2018-02-01T05:34:07.737Z,84.01
2018-02-01T05:35:13.652Z,84.06
2018-02-01T05:36:19.585Z,83.88
2018-02-01T05:37:25.355Z,83.87
2018-02-01T05:38:31.508Z,83.56
2018-02-01T05:39:37.687Z,84.09
2018-02-01T05:40:43.795Z,83.40
2018-02-01T05:41:49.696Z,83.04
2018-02-01T05:42:55.782Z,82.75
2018-02-01T05:44:01.897Z,82.83
2018-02-01T05:45:08.105Z,83.47
2018-02-01T05:46:15.069Z,83.51
2018-02-01T05:47:21.220Z,83.73
2018-02-01T05:48:27.356Z,83.45
2018-02-01T05:49:33.501Z,83.36
2018-02-01T05:50:39.682Z,83.18
2018-02-01T05:51:45.597Z,83.09
2018-02-01T05:52:51.687Z,82.76
2018-02-01T05:53:57.826Z,82.73
2018-02-01T05:55:03.956Z,83.12
2018-02-01T05:56:10.136Z,83.20
2018-02-01T05:57:16.292Z,83.32
2018-02-01T05:58:22.511Z,83.14
2018-02-01T05:59:28.624Z,83.09
2018-02-01T06:00:34.725Z,82.82
2018-02-01T06:01:40.180Z,82.97
2018-02-01T06:02:46.781Z,83.28
2018-02-01T06:03:52.960Z,83.58
2018-02-01T06:04:59.114Z,83.70
2018-02-01T06:06:05.239Z,83.36
2018-02-01T06:07:11.360Z,83.36
2018-02-01T06:08:17.676Z,83.50
2018-02-01T06:09:23.210Z,83.87
2018-02-01T06:10:35.410Z,83.91
2018-02-01T06:11:42.398Z,83.71
2018-02-01T06:12:48.557Z,83.83
2018-02-01T06:13:54.648Z,83.62
2018-02-01T06:15:00.786Z,83.66
2018-02-01T06:16:06.939Z,83.89
2018-02-01T06:17:12.897Z,83.81
2018-02-01T06:18:18.948Z,83.90
2018-02-01T06:19:25.129Z,83.50
2018-02-01T06:20:31.241Z,83.42
2018-02-01T06:21:37.402Z,83.61
2018-02-01T06:22:43.576Z,83.52
2018-02-01T06:23:49.327Z,83.37
2018-02-01T06:24:55.603Z,82.99
2018-02-01T06:26:02.038Z,82.43
2018-02-01T06:27:08.160Z,82.64
2018-02-01T06:28:14.334Z,82.84
2018-02-01T06:29:20.492Z,82.66
2018-02-01T06:30:26.677Z,82.85
2018-02-01T06:31:33.199Z,82.94
2018-02-01T06:32:39.335Z,83.17
2018-02-01T06:33:45.477Z,83.46
2018-02-01T06:34:51.673Z,83.46
2018-02-01T06:35:57.820Z,83.07
2018-02-01T06:37:03.968Z,83.14
2018-02-01T06:38:10.163Z,83.34
2018-02-01T06:39:16.475Z,83.45
2018-02-01T06:40:22.636Z,83.61
2018-02-01T06:41:28.978Z,83.64
2018-02-01T06:42:34.455Z,83.61
2018-02-01T06:43:45.837Z,83.35
2018-02-01T06:44:51.940Z,83.97
2018-02-01T06:45:58.144Z,84.20
2018-02-01T06:47:03.615Z,84.23
2018-02-01T06:48:09.541Z,84.45
2018-02-01T06:49:15.668Z,83.91
2018-02-01T06:50:21.881Z,83.69
2018-02-01T06:51:28.060Z,83.80
2018-02-01T06:52:34.152Z,83.67
2018-02-01T06:53:39.947Z,83.91
2018-02-01T06:54:46.194Z,84.08
2018-02-01T06:55:52.298Z,83.87
2018-02-01T06:56:58.483Z,83.64
2018-02-01T06:58:04.727Z,83.36
2018-02-01T06:59:12.141Z,83.17
2018-02-01T07:00:18.245Z,83.13
2018-02-01T07:01:25.126Z,82.82
2018-02-01T07:02:31.275Z,82.76
2018-02-01T07:03:37.421Z,82.58
2018-02-01T07:04:43.608Z,83.27
2018-02-01T07:05:49.744Z,83.84
2018-02-01T07:06:55.867Z,83.93
2018-02-01T07:08:01.617Z,84.30
2018-02-01T07:09:07.542Z,84.35
2018-02-01T07:10:13.647Z,84.66
2018-02-01T07:11:19.782Z,85.00
2018-02-01T07:12:25.748Z,84.48
2018-02-01T07:13:31.855Z,84.17
2018-02-01T07:14:37.992Z,84.19
2018-02-01T07:15:44.144Z,83.95
2018-02-01T07:16:50.297Z,83.30
2018-02-01T07:17:56.449Z,83.01
2018-02-01T07:19:02.573Z,83.32
2018-02-01T07:20:08.752Z,83.25
2018-02-01T07:21:14.888Z,83.37
2018-02-01T07:22:21.175Z,83.78
2018-02-01T07:23:27.383Z,83.23
2018-02-01T07:24:33.545Z,83.33
2018-02-01T07:25:39.749Z,82.74
2018-02-01T07:26:45.960Z,82.44
2018-02-01T07:27:52.982Z,82.34
2018-02-01T07:28:59.198Z,81.56
2018-02-01T07:30:05.353Z,81.53
2018-02-01T07:31:12.036Z,81.73
2018-02-01T07:32:18.208Z,81.34
2018-02-01T07:33:24.441Z,81.14
2018-02-01T07:34:30.555Z,80.97
2018-02-01T07:35:36.750Z,80.82
2018-02-01T07:36:42.884Z,81.22
2018-02-01T07:37:48.996Z,81.39
2018-02-01T07:38:55.095Z,81.84
2018-02-01T07:40:01.236Z,81.92
2018-02-01T07:41:07.368Z,82.00
2018-02-01T07:42:14.481Z,82.01
2018-02-01T07:43:20.580Z,82.13
2018-02-01T07:44:26.500Z,81.77
2018-02-01T07:57:35.206Z,84.23
2018-02-01T07:58:41.355Z,84.06
2018-02-01T07:59:47.487Z,83.78
2018-02-01T08:00:53.409Z,83.62
2018-02-01T08:01:59.530Z,83.91
2018-02-01T08:03:05.609Z,84.40
2018-02-01T08:04:11.714Z,84.13
2018-02-01T08:05:19.544Z,84.41
2018-02-01T08:06:25.684Z,84.41
2018-02-01T08:07:31.793Z,84.14
2018-02-01T08:08:37.420Z,83.58
2018-02-01T08:09:43.519Z,83.11
2018-02-01T08:10:49.675Z,83.21
2018-02-01T08:11:55.768Z,83.39
2018-02-01T08:13:01.902Z,83.21
2018-02-01T08:14:08.245Z,83.45
2018-02-01T08:15:14.357Z,83.07
2018-02-01T08:16:20.500Z,82.97
2018-02-01T08:17:26.448Z,83.62
2018-02-01T08:18:32.658Z,83.79
2018-02-01T08:19:38.828Z,83.63
2018-02-01T08:20:45.231Z,82.96
2018-02-01T08:21:51.396Z,82.64
2018-02-01T08:22:57.514Z,82.18
2018-02-01T08:24:03.611Z,82.12
2018-02-01T08:25:09.767Z,82.00
2018-02-01T08:26:15.889Z,82.21
2018-02-01T08:27:22.030Z,82.62
2018-02-01T08:28:28.225Z,82.87
2018-02-01T08:29:34.299Z,82.39
2018-02-01T08:30:40.401Z,82.40
2018-02-01T08:31:46.486Z,82.64
2018-02-01T08:32:52.664Z,83.07
2018-02-01T08:33:58.606Z,82.51
2018-02-01T08:35:04.346Z,82.23
2018-02-01T08:36:10.498Z,82.00
2018-02-01T08:37:16.668Z,81.93
2018-02-01T08:38:22.977Z,82.18
2018-02-01T08:39:29.163Z,82.03
2018-02-01T08:40:35.335Z,81.99
2018-02-01T08:41:41.449Z,82.21
2018-02-01T08:42:47.574Z,81.73
2018-02-01T08:43:52.773Z,81.89
2018-02-01T08:44:59.139Z,81.87
2018-02-01T08:46:05.226Z,82.27
2018-02-01T08:47:11.376Z,81.94
2018-02-01T08:48:17.501Z,81.38
2018-02-01T08:49:23.594Z,81.16
2018-02-01T08:50:29.749Z,80.54
2018-02-01T08:51:35.899Z,80.29
2018-02-01T08:52:42.072Z,80.45
2018-02-01T08:53:47.973Z,80.41
2018-02-01T08:54:54.113Z,80.60
2018-02-01T08:55:59.567Z,79.70
2018-02-01T08:57:05.662Z,79.83
2018-02-01T08:58:11.859Z,79.62
2018-02-01T08:59:18.192Z,79.25
2018-02-01T09:00:24.096Z,79.19
2018-02-01T09:01:30.208Z,79.40
2018-02-01T09:02:36.277Z,79.29
2018-02-01T09:03:42.420Z,79.39
2018-02-01T09:04:48.590Z,79.41
2018-02-01T09:05:54.712Z,79.58
2018-02-01T09:07:00.877Z,79.38
2018-02-01T09:08:06.309Z,78.74
2018-02-01T09:09:12.412Z,77.97
2018-02-01T09:10:18.540Z,78.05
2018-02-01T09:11:24.642Z,77.95
2018-02-01T09:12:30.801Z,77.65
2018-02-01T09:13:36.929Z,77.50
2018-02-01T09:14:42.408Z,77.13
2018-02-01T09:15:48.571Z,77.37
2018-02-01T09:16:54.661Z,76.95
2018-02-01T09:18:00.805Z,76.90
2018-02-01T09:19:07.046Z,77.15
2018-02-01T09:20:13.176Z,76.84
2018-02-01T09:21:19.313Z,76.72
2018-02-01T09:22:25.485Z,77.08
2018-02-01T09:23:31.625Z,77.17
2018-02-01T09:24:37.723Z,77.18
2018-02-01T09:25:43.860Z,76.84
2018-02-01T09:26:50.015Z,76.63
2018-02-01T09:27:56.176Z,77.11
2018-02-01T09:29:02.365Z,76.93
2018-02-01T09:30:08.262Z,76.80
2018-02-01T09:31:14.402Z,76.18
2018-02-01T09:32:20.612Z,75.70
2018-02-01T09:33:26.715Z,75.76
2018-02-01T09:34:32.875Z,75.66
2018-02-01T09:35:39.044Z,75.45
2018-02-01T09:36:45.174Z,75.03
2018-02-01T09:37:51.255Z,75.16
2018-02-01T09:38:57.365Z,74.82
2018-02-01T09:40:03.191Z,74.17
2018-02-01T09:41:17.146Z,73.40
2018-02-01T09:42:25.562Z,73.40
2018-02-01T09:43:33.167Z,73.25
2018-02-01T09:44:39.272Z,73.54
2018-02-01T09:45:45.627Z,72.88
2018-02-01T09:46:51.767Z,72.80
2018-02-01T09:47:57.586Z,72.63
2018-02-01T09:50:42.988Z,72.33
2018-02-01T09:51:49.143Z,71.95
2018-02-01T09:52:55.051Z,72.05
2018-02-01T09:54:01.221Z,71.71
2018-02-01T09:55:07.323Z,72.07
2018-02-01T09:56:13.206Z,72.44
2018-02-01T09:57:19.307Z,71.92
2018-02-01T09:58:25.440Z,72.00
2018-02-01T09:59:31.613Z,71.85
2018-02-01T10:00:37.452Z,71.68
2018-02-01T10:01:43.586Z,71.20
2018-02-01T10:02:49.726Z,71.33
2018-02-01T10:03:55.556Z,71.68
2018-02-01T10:05:01.737Z,71.97
2018-02-01T10:06:07.624Z,72.34
2018-02-01T10:07:13.786Z,72.38
2018-02-01T10:08:20.083Z,72.53
2018-02-01T10:09:26.230Z,72.47
2018-02-01T10:10:32.417Z,71.71
2018-02-01T10:11:38.243Z,71.71
2018-02-01T10:12:44.061Z,71.42
2018-02-01T10:13:49.908Z,71.95
2018-02-01T10:14:56.023Z,70.97
2018-02-01T10:16:02.219Z,70.81
2018-02-01T10:17:08.326Z,70.49
2018-02-01T10:18:14.137Z,70.83
2018-02-01T10:19:20.275Z,70.68
2018-02-01T10:20:25.830Z,70.45
2018-02-01T10:21:31.929Z,70.26
2018-02-01T10:22:38.105Z,70.13
2018-02-01T10:23:44.278Z,69.77
2018-02-01T10:24:50.417Z,70.04
2018-02-01T10:25:56.568Z,69.91
2018-02-01T10:27:02.703Z,69.12
2018-02-01T10:28:08.804Z,69.27
2018-02-01T10:29:14.973Z,69.78
2018-02-01T10:30:20.831Z,69.95
2018-02-01T10:31:26.706Z,70.13
2018-02-01T10:32:32.529Z,70.21
2018-02-01T10:33:38.677Z,70.85
2018-02-01T10:34:44.787Z,71.26
2018-02-01T10:35:50.928Z,70.53
2018-02-01T10:36:57.204Z,70.44
2018-02-01T10:38:02.733Z,70.53
2018-02-01T10:39:08.612Z,70.16
2018-02-01T10:40:14.760Z,69.66
2018-02-01T10:41:20.849Z,69.60
2018-02-01T10:42:26.992Z,69.93
2018-02-01T10:43:32.810Z,70.37
2018-02-01T10:44:44.937Z,70.73
2018-02-01T10:45:51.094Z,70.42
2018-02-01T10:46:57.476Z,69.77
2018-02-01T10:48:03.580Z,70.31
2018-02-01T10:49:09.693Z,69.88
2018-02-01T10:50:15.813Z,70.06
2018-02-01T10:51:23.652Z,70.38
2018-02-01T10:52:29.823Z,70.49
2018-02-01T10:53:36.073Z,69.94
2018-02-01T10:54:42.217Z,70.33
2018-02-01T10:55:48.347Z,70.52
2018-02-01T10:56:54.152Z,71.05
2018-02-01T10:58:00.248Z,71.09
2018-02-01T10:59:06.454Z,70.90
2018-02-01T11:00:12.318Z,71.05
2018-02-01T11:01:18.364Z,71.33
2018-02-01T11:02:24.492Z,71.52
2018-02-01T11:03:30.651Z,71.49
2018-02-01T11:04:36.569Z,71.63
2018-02-01T11:05:42.981Z,70.72
2018-02-01T11:06:48.831Z,70.11
2018-02-01T11:07:54.981Z,69.25
2018-02-01T11:09:00.820Z,69.35
2018-02-01T11:10:06.625Z,69.48
2018-02-01T11:11:12.480Z,68.49
2018-02-01T11:12:18.623Z,68.28
2018-02-01T11:13:24.467Z,67.96
2018-02-01T11:14:30.316Z,67.76
2018-02-01T11:15:36.470Z,67.88
2018-02-01T11:16:42.296Z,67.79
2018-02-01T11:17:48.195Z,67.76
2018-02-01T11:18:54.050Z,67.40
2018-02-01T11:20:04.790Z,67.08
2018-02-01T11:21:10.935Z,66.92
2018-02-01T11:22:17.081Z,67.04
2018-02-01T11:23:22.932Z,66.95
2018-02-01T11:24:29.075Z,66.64
2018-02-01T11:25:34.943Z,66.71
2018-02-01T11:26:41.080Z,65.94
2018-02-01T11:27:47.256Z,65.68
2018-02-01T11:28:53.353Z,65.43
2018-02-01T11:29:59.152Z,65.57
2018-02-01T11:31:05.061Z,65.84
2018-02-01T11:32:11.193Z,65.82
2018-02-01T11:33:17.045Z,65.50
2018-02-01T11:34:23.241Z,64.82
2018-02-01T11:35:29.431Z,63.54
2018-02-01T11:36:35.551Z,63.19
2018-02-01T11:37:41.702Z,63.09
2018-02-01T11:38:47.800Z,63.23
2018-02-01T11:39:53.631Z,63.09
2018-02-01T11:40:59.702Z,62.77
2018-02-01T11:42:05.884Z,63.09
2018-02-01T11:43:11.709Z,62.96
2018-02-01T11:44:17.836Z,63.11
2018-02-01T11:45:24.005Z,62.51
2018-02-01T11:46:29.981Z,61.94
2018-02-01T11:47:35.853Z,62.23
2018-02-01T11:48:42.002Z,62.01
2018-02-01T11:49:48.183Z,62.06
2018-02-01T11:50:54.010Z,61.80
2018-02-01T11:52:00.425Z,62.13
2018-02-01T11:53:06.595Z,62.01
2018-02-01T11:54:12.768Z,62.28
2018-02-01T11:55:18.910Z,61.79
2018-02-01T11:56:26.349Z,61.65
2018-02-01T11:57:32.553Z,61.88
2018-02-01T11:58:38.692Z,62.07
2018-02-01T11:59:43.875Z,62.44
2018-02-01T12:00:49.976Z,63.12
2018-02-01T12:01:56.144Z,63.01
2018-02-01T12:03:02.324Z,63.08
2018-02-01T12:04:08.411Z,62.56
2018-02-01T12:05:14.533Z,62.68
2018-02-01T12:06:20.621Z,62.73
2018-02-01T12:07:26.484Z,62.65
2018-02-01T12:08:32.633Z,62.00
2018-02-01T12:09:38.506Z,61.42
2018-02-01T12:10:44.011Z,61.62
2018-02-01T12:11:49.879Z,61.68
2018-02-01T12:12:55.739Z,61.22
2018-02-01T12:14:01.613Z,61.23
2018-02-01T12:15:07.487Z,60.70
2018-02-01T12:16:13.399Z,60.82
2018-02-01T12:17:19.196Z,61.60
2018-02-01T12:18:25.293Z,60.68
2018-02-01T12:19:31.147Z,60.29
2018-02-01T12:20:36.630Z,59.87
2018-02-01T12:21:42.784Z,59.82
2018-02-01T12:22:48.932Z,59.71
2018-02-01T12:23:55.132Z,60.21
2018-02-01T12:25:01.003Z,60.35
2018-02-01T12:26:06.883Z,61.30
2018-02-01T12:27:13.276Z,61.50
2018-02-01T12:28:19.281Z,61.70
2018-02-01T12:29:25.183Z,62.28
2018-02-01T12:30:31.030Z,61.34
2018-02-01T12:31:36.928Z,61.50
2018-02-01T12:32:42.737Z,61.36
2018-02-01T12:33:54.000Z,61.37
2018-02-01T12:34:59.852Z,60.82
2018-02-01T12:36:05.672Z,59.74
2018-02-01T12:37:11.505Z,58.71
2018-02-01T12:38:17.341Z,58.79
2018-02-01T12:39:23.264Z,59.63
2018-02-01T12:40:29.129Z,59.35
2018-02-01T12:41:34.976Z,59.97
2018-02-01T12:42:40.815Z,59.87
2018-02-01T12:43:46.721Z,59.48
2018-02-01T12:44:52.615Z,59.23
2018-02-01T12:45:58.492Z,58.78
2018-02-01T12:47:04.295Z,59.02
2018-02-01T12:48:10.129Z,58.66
2018-02-01T12:49:16.046Z,59.32
2018-02-01T12:50:21.923Z,59.31
2018-02-01T12:51:27.790Z,59.66
2018-02-01T12:52:33.616Z,59.91
2018-02-01T12:53:39.475Z,58.73
2018-02-01T12:54:45.296Z,59.17
2018-02-01T12:55:51.208Z,60.23
2018-02-01T12:56:57.094Z,60.39
2018-02-01T12:58:02.994Z,60.76
2018-02-01T12:59:08.905Z,60.68
2018-02-01T13:00:14.723Z,61.47
2018-02-01T13:01:20.584Z,61.20
2018-02-01T13:02:26.416Z,60.67
2018-02-01T13:03:32.277Z,60.54
2018-02-01T13:04:38.159Z,60.16
2018-02-01T13:05:44.252Z,60.52
2018-02-01T13:06:50.093Z,59.82
2018-02-01T13:07:55.939Z,60.46
2018-02-01T13:09:01.833Z,61.10
2018-02-01T13:10:07.669Z,60.25
2018-02-01T13:11:13.533Z,60.08
2018-02-01T13:12:19.416Z,60.51
2018-02-01T13:13:25.248Z,60.64
2018-02-01T13:14:31.123Z,60.08
2018-02-01T13:15:36.970Z,60.36
2018-02-01T13:16:43.078Z,61.13
2018-02-01T13:17:48.907Z,60.67
2018-02-01T13:18:54.793Z,61.25
2018-02-01T13:20:00.663Z,61.57
2018-02-01T13:21:06.513Z,61.08
2018-02-01T13:22:14.311Z,61.74
2018-02-01T13:23:20.253Z,61.76
2018-02-01T13:24:26.180Z,62.24
2018-02-01T13:25:32.032Z,62.01
2018-02-01T13:26:37.950Z,62.18
2018-02-01T13:27:49.435Z,62.21
2018-02-01T13:28:55.331Z,61.46
2018-02-01T13:30:01.192Z,61.40
2018-02-01T13:31:07.018Z,61.21
2018-02-01T13:32:13.007Z,61.01
2018-02-01T13:33:18.869Z,60.90
2018-02-01T13:34:24.738Z,61.23
2018-02-01T13:35:30.613Z,61.82
2018-02-01T13:36:36.496Z,62.12
2018-02-01T13:37:42.315Z,62.36
2018-02-01T13:38:47.501Z,61.91
2018-02-01T13:39:53.366Z,62.03
2018-02-01T13:41:01.237Z,62.65
2018-02-01T13:42:07.101Z,62.96
2018-02-01T13:43:13.009Z,63.00
2018-02-01T13:44:18.136Z,63.08
2018-02-01T13:45:24.063Z,63.04
2018-02-01T13:46:29.309Z,63.14
2018-02-01T13:47:35.232Z,62.97
2018-02-01T13:48:41.125Z,62.58
2018-02-01T13:49:47.053Z,62.17
2018-02-01T13:50:52.940Z,62.01
2018-02-01T13:51:58.833Z,62.25
2018-02-01T13:53:04.701Z,62.36
2018-02-01T13:54:10.552Z,61.54
2018-02-01T13:55:16.422Z,60.85
2018-02-01T13:56:22.303Z,60.72
2018-02-01T13:57:28.224Z,61.44
2018-02-01T13:58:34.103Z,61.97
2018-02-01T13:59:40.009Z,61.82
2018-02-01T14:00:46.106Z,62.05
2018-02-01T14:01:51.931Z,61.38
2018-02-01T14:02:57.834Z,61.67
2018-02-01T14:04:03.752Z,61.00
2018-02-01T14:05:09.577Z,60.84
2018-02-01T14:06:15.404Z,60.92
2018-02-01T14:07:21.297Z,61.53
2018-02-01T14:08:27.141Z,61.05
2018-02-01T14:09:32.988Z,60.85
2018-02-01T14:10:38.899Z,61.03
2018-02-01T14:11:44.753Z,61.25
2018-02-01T14:12:50.609Z,61.35
2018-02-01T14:13:56.469Z,61.21
2018-02-01T14:15:02.350Z,61.21
2018-02-01T14:16:08.228Z,61.67
2018-02-01T14:17:14.171Z,62.10
2018-02-01T14:18:19.430Z,61.78
2018-02-01T14:19:25.322Z,61.97
2018-02-01T14:20:31.164Z,62.04
2018-02-01T14:21:37.012Z,61.67
2018-02-01T14:22:42.888Z,61.85
2018-02-01T14:23:48.723Z,61.85
2018-02-01T14:24:54.645Z,61.90
2018-02-01T14:26:00.443Z,61.96
2018-02-01T14:27:06.335Z,61.77